Thursday, November 23, 2017, 2:18 AM EST
Back to Local

KJFK, Kennedy International Airport

Location: Rosedale, NY, United States Lat: 40.633
Local Time: 2:18 AM EST ( 7:18 GMT) Lon: -73.767
Time Zone: US/Eastern Elev: 13 ft

Show me the last for .
Show Decoded

2017-11-23 01:51 METAR KJFK 230651Z 32013KT 10SM CLR 01/M07 A3010 RMK AO2 SLP193 T00061067 =
2017-11-23 00:51 METAR KJFK 230551Z 32014G22KT 10SM FEW045 01/M07 A3008 RMK AO2 SLP186 T00111067
                 10056 20011 50001 =
2017-11-22 23:51 METAR KJFK 230451Z COR 31014KT 10SM FEW044 02/M06 A3010 RMK AO2 SLP191 T00171061
                 401220017 =
2017-11-22 22:51 METAR KJFK 230351Z 31018G23KT 10SM FEW040 02/M06 A3009 RMK AO2 SLP189 T00221056
                 =
2017-11-22 21:51 METAR KJFK 230251Z 31014G22KT 10SM FEW040 03/M05 A3008 RMK AO2 SLP185 T00281050
                 51023 =
2017-11-22 20:51 METAR KJFK 230151Z 30018G24KT 10SM FEW040 03/M04 A3006 RMK AO2 PK WND 30029/0057
                 SLP179 T00331044 =
2017-11-22 19:51 METAR KJFK 230051Z 31018G25KT 10SM FEW042 04/M03 A3005 RMK AO2 PK WND 30033/0020
                 SLP174 T00441033 =
2017-11-22 18:51 METAR KJFK 222351Z 32015G27KT 10SM BKN042 06/M03 A3001 RMK AO2 PK WND 30028/2253
                 SLP163 T00561028 10122 20056 51026 =
2017-11-22 17:51 METAR KJFK 222251Z 31019KT 10SM SCT042 06/M02 A2999 RMK AO2 PK WND 30031/2200
                 SLP156 T00611022 =
2017-11-22 16:51 METAR KJFK 222151Z 32022G31KT 10SM SCT042 SCT250 07/M01 A2997 RMK AO2 PK WND
                 31031/2143 SLP147 T00721011 =
2017-11-22 15:51 METAR KJFK 222051Z 31022G26KT 10SM SCT041 SCT250 09/01 A2994 RMK AO2 PK WND
                 30027/2037 SLP137 T00940006 53021 =
2017-11-22 14:51 METAR KJFK 221951Z 30017G21KT 10SM BKN037 BKN048 11/04 A2990 RMK AO2 PK WND
                 30027/1920 SLP123 T01060039 =
2017-11-22 13:51 METAR KJFK 221851Z 30019KT 10SM FEW026 BKN033 BKN100 11/04 A2988 RMK AO2 PK WND
                 31027/1829 SLP118 T01110044 =
2017-11-22 12:51 METAR KJFK 221751Z 32020KT 10SM FEW025 BKN070 BKN110 11/07 A2987 RMK AO2
                 RAB1656E38 SLP116 P0000 60024 T01110067 10122 20106 58006 =
2017-11-22 11:51 METAR KJFK 221651Z 32008KT 10SM FEW025 BKN065 BKN095 OVC220 12/08 A2989 RMK AO2
                 RAB1552E47 SLP120 P0000 T01170083 =
2017-11-22 10:51 METAR KJFK 221551Z 02006KT 10SM FEW020 BKN047 OVC080 12/08 A2989 RMK AO2 SLP121
                 RAB02E17 P0001 T01170083 =
2017-11-22 10:27 METAR KJFK 221527Z 32009KT 10SM SCT019 BKN043 OVC080 12/09 A2990 RMK AO2
                 RAB02E17 P0001 T01170089 =
2017-11-22 09:51 METAR KJFK 221451Z 30009KT 10SM FEW009 BKN017 BKN060 OVC200 12/11 A2989 RMK AO2
                 RAE47 SLP122 BKN017 V SCT VCSH NE-SE P0004 60023 T01220111 58010 =
2017-11-22 08:51 METAR KJFK 221351Z 28006KT 6SM -RA BR FEW006 BKN015 OVC055 12/12 A2991 RMK AO2
                 SLP126 P0011 T01170117 =
2017-11-22 08:42 METAR KJFK 221342Z 28007KT 5SM -RA BR SCT005 BKN014 OVC050 12/12 A2991 RMK AO2
                 P0010 T01170117 =
2017-11-22 07:51 METAR KJFK 221251Z 00000KT 6SM RA BR OVC006 11/11 A2991 RMK AO2 SLP130 P0008
                 T01110111 =
2017-11-22 07:09 METAR KJFK 221209Z 00000KT 7SM -RA BKN007 OVC026 11/11 A2992 RMK AO2 P0004
                 T01110111 =
2017-11-22 06:51 METAR KJFK 221151Z 15004KT 5SM RA BR SCT008 BKN021 OVC033 11/11 A2992 RMK AO2
                 SLP132 SCT V BKN P0010 60011 70011 T01060106 10111 20083 55013 =
2017-11-22 06:17 METAR KJFK 221117Z 16003KT 8SM -RA FEW012 BKN029 OVC070 10/10 A2993 RMK AO2
                 P0001 T01000100 =
2017-11-22 05:51 METAR KJFK 221051Z 00000KT 10SM -RA BKN033 OVC060 11/10 A2992 RMK AO2 SLP131
                 P0001 T01110100 =
2017-11-22 04:51 METAR KJFK 220951Z 00000KT 8SM -RA BKN045 OVC110 10/08 A2994 RMK AO2 RAB46
                 SLP139 P0000 T01000083 =
2017-11-22 03:51 METAR KJFK 220851Z 00000KT 10SM FEW049 BKN110 09/08 A2996 RMK AO2 SLP145
                 T00890078 58021 =
2017-11-22 02:51 METAR KJFK 220751Z 00000KT 10SM SCT047 BKN090 OVC210 11/08 A2999 RMK AO2 SLP154
                 T01060083 =

Support USWX by starting your Amazon purchase here.